world map with SBL marked

SBL - Airport

This information may not be accurate or current and is not valid for navigation or flight planning. No warranty of fitness for any purpose is made or implied.

flag of El Beniflag of Bolivia

Donate via PayPal

Additional information is available on the NEW Great Circle Mapper

Location
City:  Santa Ana del Yacuma, Yacuma, El Beni, Bolivia
Name:Santa Ana del Yacuma Yacuma Airport
ICAO / IATA:SLSA / SBL

Details
Type:Airport (Aerodrome, Airfield)
Latitude:13°45'44"S (-13.762207)
Longitude:65°26'07"W (-65.435157)
Datum:WGS 1984
Elevation:472 ft (144 m)
Runways:1
Longest:5013 × 69 ft (1528 × 21 m)

Time
Timezone:UTC+30:08 (DST+32:08)
Local Time:

Weather
METAR:SLSA  041400Z 14014KT 9999 SCT080 BKN200 28/22 Q1015

Related Locations
Nearby:
Farthest:RPPN: 12243 mi / 19703 km
Thitu Island (Pagasa) [Rancudo Airfield], Spratly Islands, PLW, PH

Find:

   beyond  
but within

Other Information
Maps:
Sources:

  


 


Great Circle Mapper   Great Circle Mapper
Great Circle Mapper FAQ   Great Circle Mapper FAQ
  Karl's Home Page
KLSē   KLSē Home
   GC on Facebook
Airlines of the World   Airlines of the World
Donate via PayPal


Copyright © 2004-2019, Karl L. Swartz. All rights reserved.
All trademarks mentioned herein belong to their respective owners.

Please see credits for attribution and copyright information.

Karl Swartz <karl@kls2.com>
  Powered by FreeBSD
Valid HTML 4.01!
Labeled with ICRA
hCard Microformat
Geo Microformat